createdAt,value
2022-10-01T00:01:08.120Z,97512.31
2022-10-01T00:03:38.110Z,97513.31
2022-10-01T00:06:09.173Z,97514.34
2022-10-01T00:08:39.487Z,97520.06
2022-10-01T00:11:14.160Z,97521.47
2022-10-01T00:13:43.240Z,97531.31
2022-10-01T00:16:13.498Z,97527.34
2022-10-01T00:18:42.767Z,97527.34
2022-10-01T00:21:11.353Z,97528.41
2022-10-01T00:23:40.897Z,97528.75
2022-10-01T00:26:14.959Z,97522.59
2022-10-01T00:28:42.674Z,97523.22
2022-10-01T00:31:11.227Z,97523.06
2022-10-01T00:33:39.630Z,97519.34
2022-10-01T00:36:08.603Z,97524.88
2022-10-01T00:38:36.829Z,97529.50
2022-10-01T00:41:06.114Z,97532.66
2022-10-01T00:43:36.721Z,97532.66
2022-10-01T00:46:11.246Z,97527.88
2022-10-01T00:48:48.928Z,97519.03
2022-10-01T00:51:16.690Z,97524.63
2022-10-01T00:53:45.929Z,97509.44
2022-10-01T00:56:15.210Z,97514.06
2022-10-01T00:58:43.867Z,97509.91
2022-10-01T01:01:11.703Z,97508.69
2022-10-01T01:03:39.809Z,97504.63
2022-10-01T01:06:09.682Z,97503.81
2022-10-01T01:08:37.385Z,97501.59
2022-10-01T01:11:12.261Z,97504.25
2022-10-01T01:13:52.831Z,97500.56
2022-10-01T01:16:27.906Z,97506.38
2022-10-01T01:19:03.278Z,97497.91
2022-10-01T01:21:34.171Z,97499.38
2022-10-01T01:24:20.133Z,97496.91
2022-10-01T01:27:00.224Z,97494.94
2022-10-01T01:29:35.887Z,97493.06
2022-10-01T01:32:14.002Z,97507.72
2022-10-01T01:34:46.405Z,97489.81
2022-10-01T01:37:18.699Z,97496.91
2022-10-01T01:39:51.436Z,97495.84
2022-10-01T01:42:24.745Z,97504.31
2022-10-01T01:44:58.274Z,97493.44
2022-10-01T01:47:33.422Z,97492.97
2022-10-01T01:50:03.068Z,97479.81
2022-10-01T01:52:31.241Z,97476.50
2022-10-01T01:54:59.430Z,97481.84
2022-10-01T01:57:27.362Z,97477.16
2022-10-01T01:59:56.331Z,97483.22
2022-10-01T02:02:27.994Z,97476.88
2022-10-01T02:05:00.248Z,97477.72
2022-10-01T02:08:00.050Z,97471.84
2022-10-01T02:10:37.632Z,97464.75
2022-10-01T02:13:20.215Z,97455.56
2022-10-01T02:16:01.303Z,97471.47
2022-10-01T02:18:35.309Z,97452.56
2022-10-01T02:21:11.582Z,97450.59
2022-10-01T02:23:43.406Z,97445.03
2022-10-01T02:26:16.522Z,97455.13
2022-10-01T02:28:46.779Z,97438.28
2022-10-01T02:31:18.429Z,97433.97
2022-10-01T02:33:48.000Z,97445.16
2022-10-01T02:36:17.874Z,97445.38
2022-10-01T02:38:47.110Z,97449.22
2022-10-01T02:41:18.269Z,97442.94
2022-10-01T02:43:53.260Z,97448.94
2022-10-01T02:46:30.085Z,97449.22
2022-10-01T02:48:59.591Z,97449.22
2022-10-01T02:51:35.086Z,97446.72
2022-10-01T02:54:08.150Z,97448.59
2022-10-01T02:57:06.130Z,97455.84
2022-10-01T02:59:33.711Z,97453.28
2022-10-01T03:02:03.026Z,97443.31
2022-10-01T03:04:30.941Z,97441.22
2022-10-01T03:07:03.405Z,97433.13
2022-10-01T03:09:32.228Z,97436.63
2022-10-01T03:12:00.942Z,97438.09
2022-10-01T03:14:29.210Z,97432.81
2022-10-01T03:16:56.803Z,97436.31
2022-10-01T03:19:25.743Z,97436.16
2022-10-01T03:21:53.370Z,97435.13
2022-10-01T03:24:20.978Z,97435.75
2022-10-01T03:26:49.068Z,97436.78
2022-10-01T03:29:16.680Z,97431.91
2022-10-01T03:31:44.298Z,97431.31
2022-10-01T03:34:13.315Z,97433.97
2022-10-01T03:36:42.401Z,97431.56
2022-10-01T03:39:10.041Z,97422.75
2022-10-01T03:41:37.878Z,97426.63
2022-10-01T03:44:05.873Z,97430.75
2022-10-01T03:46:33.450Z,97423.97
2022-10-01T03:49:01.161Z,97425.78
2022-10-01T03:51:29.188Z,97425.22
2022-10-01T03:53:58.857Z,97417.22
2022-10-01T03:56:26.722Z,97410.88
2022-10-01T03:58:54.453Z,97400.81
2022-10-01T04:01:22.975Z,97403.22
2022-10-01T04:03:51.148Z,97406.16
2022-10-01T04:06:19.194Z,97398.78
2022-10-01T04:08:46.991Z,97402.06
2022-10-01T04:11:15.908Z,97402.13
2022-10-01T04:13:43.552Z,97394.13
2022-10-01T04:16:11.284Z,97392.28
2022-10-01T04:18:38.940Z,97389.59
2022-10-01T04:21:06.753Z,97394.75
2022-10-01T04:23:34.311Z,97391.09
2022-10-01T04:26:03.062Z,97391.53
2022-10-01T04:28:32.731Z,97391.91
2022-10-01T04:31:14.490Z,97388.03
2022-10-01T04:33:42.263Z,97389.69
2022-10-01T04:36:09.843Z,97383.28
2022-10-01T04:38:37.525Z,97378.78
2022-10-01T04:41:05.252Z,97375.53
2022-10-01T04:43:34.437Z,97382.09
2022-10-01T04:46:01.985Z,97371.84
2022-10-01T04:48:29.589Z,97377.38
2022-10-01T04:50:57.124Z,97382.28
2022-10-01T04:53:24.765Z,97380.88
2022-10-01T04:55:52.345Z,97394.25
2022-10-01T04:58:20.020Z,97394.25
2022-10-01T05:00:49.784Z,97399.19
2022-10-01T05:03:17.497Z,97400.03
2022-10-01T05:05:45.547Z,97392.84
2022-10-01T05:08:13.110Z,97392.84
2022-10-01T05:10:40.682Z,97387.31
2022-10-01T05:13:08.421Z,97381.13
2022-10-01T05:15:36.749Z,97378.03
2022-10-01T05:18:05.680Z,97380.69
2022-10-01T05:20:33.985Z,97385.47
2022-10-01T05:23:01.688Z,97382.16
2022-10-01T05:25:29.293Z,97389.72
2022-10-01T05:28:05.061Z,97393.06
2022-10-01T05:30:33.503Z,97392.66
2022-10-01T05:33:02.652Z,97386.94
2022-10-01T05:35:32.630Z,97398.63
2022-10-01T05:38:02.627Z,97397.63
2022-10-01T05:40:31.364Z,97405.81
2022-10-01T05:43:00.524Z,97402.78
2022-10-01T05:45:29.095Z,97403.78
2022-10-01T05:47:58.553Z,97399.72
2022-10-01T05:50:26.669Z,97388.59
2022-10-01T05:52:55.956Z,97385.34
2022-10-01T05:55:24.166Z,97381.25
2022-10-01T05:57:56.555Z,97373.81
2022-10-01T06:00:24.264Z,97380.56
2022-10-01T06:02:53.174Z,97376.88
2022-10-01T06:05:21.531Z,97378.13
2022-10-01T06:07:49.652Z,97373.69
2022-10-01T06:10:19.286Z,97361.75
2022-10-01T06:12:46.882Z,97366.22
2022-10-01T06:15:14.573Z,97360.38
2022-10-01T06:17:44.932Z,97354.59
2022-10-01T06:20:14.851Z,97366.94
2022-10-01T06:22:43.155Z,97357.09
2022-10-01T06:25:12.114Z,97347.28
2022-10-01T06:27:41.069Z,97342.31
2022-10-01T06:30:09.714Z,97352.38
2022-10-01T06:32:37.365Z,97351.31
2022-10-01T06:35:05.593Z,97344.34
2022-10-01T06:37:33.150Z,97343.34
2022-10-01T06:40:00.985Z,97335.56
2022-10-01T06:42:28.518Z,97345.38
2022-10-01T06:44:57.582Z,97346.22
2022-10-01T06:47:25.317Z,97344.16
2022-10-01T06:49:52.912Z,97341.75
2022-10-01T06:52:37.925Z,97351.84
2022-10-01T06:55:06.204Z,97357.63
2022-10-01T06:57:34.312Z,97357.25
2022-10-01T07:00:03.326Z,97351.94
2022-10-01T07:02:32.152Z,97357.28
2022-10-01T07:05:00.111Z,97359.91
2022-10-01T07:07:30.738Z,97349.84
2022-10-01T07:09:59.102Z,97351.72
2022-10-01T07:12:27.151Z,97354.00
2022-10-01T07:14:55.320Z,97351.56
2022-10-01T07:17:24.623Z,97350.09
2022-10-01T07:19:52.409Z,97343.28
2022-10-01T07:22:20.438Z,97338.38
2022-10-01T07:24:48.295Z,97337.72
2022-10-01T07:27:15.945Z,97346.22
2022-10-01T07:29:43.732Z,97348.28
2022-10-01T07:32:11.896Z,97349.09
2022-10-01T07:34:41.193Z,97344.81
2022-10-01T07:37:09.860Z,97348.28
2022-10-01T07:39:37.988Z,97357.78
2022-10-01T07:42:05.916Z,97362.47
2022-10-01T07:44:33.849Z,97355.72
2022-10-01T07:47:01.833Z,97361.75
2022-10-01T07:49:29.552Z,97362.56
2022-10-01T07:51:59.020Z,97357.03
2022-10-01T07:54:27.028Z,97352.31
2022-10-01T07:56:55.828Z,97360.09
2022-10-01T07:59:23.449Z,97353.31
2022-10-01T08:01:51.624Z,97346.34
2022-10-01T08:04:37.878Z,97361.75
2022-10-01T08:07:07.971Z,97364.84
2022-10-01T08:09:35.973Z,97353.91
2022-10-01T08:12:03.800Z,97351.69
2022-10-01T08:14:31.395Z,97352.94
2022-10-01T08:16:59.026Z,97352.31
2022-10-01T08:19:26.636Z,97350.03
2022-10-01T08:21:54.214Z,97356.44
2022-10-01T08:24:23.134Z,97360.72
2022-10-01T08:26:54.407Z,97352.50
2022-10-01T08:29:22.016Z,97344.09
2022-10-01T08:31:50.186Z,97336.28
2022-10-01T08:34:17.897Z,97332.63
2022-10-01T08:36:45.773Z,97340.59
2022-10-01T08:39:14.776Z,97331.78
2022-10-01T08:41:56.022Z,97331.44
2022-10-01T08:44:29.488Z,97337.38
2022-10-01T08:47:01.171Z,97333.06
2022-10-01T08:49:36.109Z,97327.13
2022-10-01T08:52:13.274Z,97331.88
2022-10-01T08:54:45.638Z,97327.13
2022-10-01T08:57:17.067Z,97326.28
2022-10-01T08:59:47.148Z,97323.00
2022-10-01T09:02:20.385Z,97318.91
2022-10-01T09:04:49.256Z,97313.72
2022-10-01T09:07:30.955Z,97309.63
2022-10-01T09:10:05.618Z,97311.41
2022-10-01T09:12:48.299Z,97307.13
2022-10-01T09:15:23.610Z,97301.59
2022-10-01T09:18:02.658Z,97300.19
2022-10-01T09:20:36.261Z,97291.94
2022-10-01T09:23:18.539Z,97287.19
2022-10-01T09:25:50.338Z,97285.31
2022-10-01T09:28:21.794Z,97272.59
2022-10-01T09:30:56.778Z,97276.75
2022-10-01T09:33:30.577Z,97268.31
2022-10-01T09:36:07.294Z,97264.81
2022-10-01T09:38:39.450Z,97261.31
2022-10-01T09:41:09.051Z,97262.97
2022-10-01T09:43:40.662Z,97262.53
2022-10-01T09:46:13.471Z,97268.09
2022-10-01T09:48:46.557Z,97262.31
2022-10-01T09:51:18.526Z,97255.13
2022-10-01T09:53:58.453Z,97257.81
2022-10-01T09:56:31.818Z,97247.53
2022-10-01T09:59:07.570Z,97247.56
2022-10-01T10:01:43.117Z,97246.91
2022-10-01T10:04:10.965Z,97254.72
2022-10-01T10:06:40.258Z,97247.16
2022-10-01T10:09:16.738Z,97236.63
2022-10-01T10:11:45.389Z,97242.22
2022-10-01T10:14:19.996Z,97244.88
2022-10-01T10:16:49.725Z,97233.78
2022-10-01T10:19:23.447Z,97242.44
2022-10-01T10:21:53.055Z,97236.06
2022-10-01T10:24:26.554Z,97240.97
2022-10-01T10:26:57.195Z,97240.19
2022-10-01T10:29:31.624Z,97240.00
2022-10-01T10:32:00.792Z,97248.63
2022-10-01T10:34:34.211Z,97246.78
2022-10-01T10:37:05.742Z,97241.00
2022-10-01T10:39:37.605Z,97228.44
2022-10-01T10:42:07.148Z,97237.13
2022-10-01T10:44:39.845Z,97237.13
2022-10-01T10:47:12.015Z,97236.72
2022-10-01T10:49:46.217Z,97232.78
2022-10-01T10:52:20.924Z,97231.34
2022-10-01T10:54:50.343Z,97233.44
2022-10-01T10:57:22.139Z,97225.38
2022-10-01T10:59:59.459Z,97222.72
2022-10-01T11:02:30.067Z,97222.53
2022-10-01T11:04:59.810Z,97219.63
2022-10-01T11:07:28.526Z,97218.78
2022-10-01T11:10:12.827Z,97200.88
2022-10-01T11:12:57.960Z,97195.31
2022-10-01T11:15:43.465Z,97203.16
2022-10-01T11:18:24.603Z,97206.22
2022-10-01T11:21:02.567Z,97210.38
2022-10-01T11:23:59.203Z,97225.81
2022-10-01T11:26:35.074Z,97214.69
2022-10-01T11:29:17.676Z,97222.53
2022-10-01T11:31:58.916Z,97227.47
2022-10-01T11:34:55.982Z,97221.88
2022-10-01T11:37:36.330Z,97220.63
2022-10-01T11:40:14.140Z,97206.41
2022-10-01T11:42:45.230Z,97208.69
2022-10-01T11:45:19.508Z,97210.16
2022-10-01T11:47:53.231Z,97216.50
2022-10-01T11:50:25.186Z,97223.72
2022-10-01T11:52:57.681Z,97216.09
2022-10-01T11:55:46.680Z,97219.38
2022-10-01T11:58:37.507Z,97207.81
2022-10-01T12:01:11.722Z,97213.59
2022-10-01T12:03:55.947Z,97207.59
2022-10-01T12:06:32.987Z,97213.56
2022-10-01T12:09:07.023Z,97212.53
2022-10-01T12:11:40.254Z,97213.38
2022-10-01T12:14:16.604Z,97206.34
2022-10-01T12:16:50.377Z,97211.50
2022-10-01T12:19:24.974Z,97217.69
2022-10-01T12:21:57.481Z,97210.00
2022-10-01T12:24:31.169Z,97211.03
2022-10-01T12:27:07.993Z,97209.94
2022-10-01T12:29:46.276Z,97218.81
2022-10-01T12:32:21.882Z,97212.38
2022-10-01T12:35:00.699Z,97209.50
2022-10-01T12:37:40.424Z,97220.03
2022-10-01T12:40:21.897Z,97213.22
2022-10-01T12:43:18.797Z,97216.53
2022-10-01T12:45:53.228Z,97208.69
2022-10-01T12:48:27.757Z,97216.31
2022-10-01T12:51:15.953Z,97204.72
2022-10-01T12:53:49.647Z,97212.75
2022-10-01T12:56:22.985Z,97221.03
2022-10-01T12:59:07.158Z,97213.97
2022-10-01T13:01:45.369Z,97222.41
2022-10-01T13:04:31.667Z,97225.78
2022-10-01T13:07:19.333Z,97229.03
2022-10-01T13:09:56.083Z,97222.78
2022-10-01T13:12:56.541Z,97231.88
2022-10-01T13:15:28.251Z,97235.81
2022-10-01T13:18:02.519Z,97244.25
2022-10-01T13:20:37.581Z,97238.88
2022-10-01T13:23:13.406Z,97249.97
2022-10-01T13:25:46.662Z,97247.78
2022-10-01T13:28:22.209Z,97255.19
2022-10-01T13:30:58.982Z,97247.59
2022-10-01T13:33:28.930Z,97254.22
2022-10-01T13:35:59.375Z,97259.59
2022-10-01T13:38:42.680Z,97247.81
2022-10-01T13:41:20.272Z,97248.03
2022-10-01T13:43:56.727Z,97246.56
2022-10-01T13:46:29.365Z,97256.66
2022-10-01T13:48:57.624Z,97255.63
2022-10-01T13:51:36.085Z,97256.41
2022-10-01T13:54:10.082Z,97261.41
2022-10-01T13:56:38.754Z,97265.09
2022-10-01T13:59:27.729Z,97267.56
2022-10-01T14:01:55.460Z,97267.41
2022-10-01T14:04:31.267Z,97264.09
2022-10-01T14:07:03.353Z,97261.41
2022-10-01T14:09:36.131Z,97272.72
2022-10-01T14:12:23.643Z,97268.38
2022-10-01T14:15:11.534Z,97270.03
2022-10-01T14:17:39.710Z,97279.13
2022-10-01T14:20:08.663Z,97269.47
2022-10-01T14:22:58.563Z,97267.56
2022-10-01T14:25:45.123Z,97268.19
2022-10-01T14:28:26.208Z,97272.91
2022-10-01T14:31:03.129Z,97271.03
2022-10-01T14:33:54.184Z,97273.56
2022-10-01T14:36:29.457Z,97279.94
2022-10-01T14:39:05.512Z,97283.66
2022-10-01T14:41:35.931Z,97282.84
2022-10-01T14:44:03.595Z,97283.22
2022-10-01T14:46:31.204Z,97278.44
2022-10-01T14:49:00.650Z,97284.28
2022-10-01T14:51:30.694Z,97273.06
2022-10-01T14:54:00.754Z,97279.50
2022-10-01T14:56:29.929Z,97287.91
2022-10-01T14:59:03.296Z,97292.59
2022-10-01T15:01:31.092Z,97286.22
2022-10-01T15:03:58.799Z,97282.47
2022-10-01T15:06:29.726Z,97278.31
2022-10-01T15:09:09.078Z,97284.50
2022-10-01T15:11:38.975Z,97286.38
2022-10-01T15:14:17.680Z,97296.97
2022-10-01T15:16:45.727Z,97294.63
2022-10-01T15:19:16.124Z,97303.06
2022-10-01T15:21:50.934Z,97295.25
2022-10-01T15:24:24.897Z,97300.22
2022-10-01T15:26:54.786Z,97287.78
2022-10-01T15:29:24.561Z,97294.19
2022-10-01T15:31:54.708Z,97291.47
2022-10-01T15:34:25.293Z,97297.25
2022-10-01T15:36:54.369Z,97294.56
2022-10-01T15:39:30.278Z,97300.53
2022-10-01T15:41:59.088Z,97302.44
2022-10-01T15:44:42.850Z,97299.53
2022-10-01T15:47:34.830Z,97297.25
2022-10-01T15:50:05.502Z,97306.53
2022-10-01T15:52:52.489Z,97306.97
2022-10-01T15:55:23.760Z,97305.75
2022-10-01T15:57:53.508Z,97308.44
2022-10-01T16:00:28.035Z,97310.69
2022-10-01T16:02:57.806Z,97308.44
2022-10-01T16:05:27.733Z,97314.78
2022-10-01T16:07:58.222Z,97332.63
2022-10-01T16:10:44.831Z,97329.50
2022-10-01T16:13:31.044Z,97334.28
2022-10-01T16:16:20.610Z,97340.25
2022-10-01T16:18:53.914Z,97329.09
2022-10-01T16:21:22.998Z,97339.84
2022-10-01T16:23:52.978Z,97342.09
2022-10-01T16:26:39.575Z,97344.00
2022-10-01T16:29:22.663Z,97340.84
2022-10-01T16:31:52.210Z,97344.16
2022-10-01T16:34:21.390Z,97346.44
2022-10-01T16:36:50.177Z,97350.16
2022-10-01T16:39:18.078Z,97355.09
2022-10-01T16:42:06.277Z,97351.59
2022-10-01T16:44:39.942Z,97359.66
2022-10-01T16:47:11.164Z,97352.91
2022-10-01T16:49:38.842Z,97351.44
2022-10-01T16:52:06.561Z,97356.81
2022-10-01T16:54:34.317Z,97355.53
2022-10-01T16:57:02.018Z,97357.22
2022-10-01T16:59:30.074Z,97362.63
2022-10-01T17:01:58.223Z,97372.09
2022-10-01T17:04:33.363Z,97365.91
2022-10-01T17:07:01.685Z,97365.91
2022-10-01T17:09:29.322Z,97376.84
2022-10-01T17:11:57.949Z,97375.19
2022-10-01T17:14:25.830Z,97385.34
2022-10-01T17:16:53.515Z,97388.03
2022-10-01T17:19:21.913Z,97388.63
2022-10-01T17:21:51.078Z,97395.47
2022-10-01T17:24:18.670Z,97400.84
2022-10-01T17:26:47.435Z,97405.97
2022-10-01T17:29:15.175Z,97408.88
2022-10-01T17:31:44.827Z,97416.31
2022-10-01T17:34:13.126Z,97414.63
2022-10-01T17:36:40.994Z,97432.03
2022-10-01T17:39:12.852Z,97428.94
2022-10-01T17:41:40.499Z,97430.78
2022-10-01T17:44:08.090Z,97428.50
2022-10-01T17:46:35.832Z,97438.66
2022-10-01T17:49:03.776Z,97445.25
2022-10-01T17:51:31.404Z,97444.44
2022-10-01T17:53:59.742Z,97451.66
2022-10-01T17:56:29.775Z,97452.50
2022-10-01T17:58:57.352Z,97447.53
2022-10-01T18:01:25.292Z,97447.53
2022-10-01T18:03:54.867Z,97454.56
2022-10-01T18:06:22.535Z,97446.69
2022-10-01T18:08:57.121Z,97459.53
2022-10-01T18:11:26.303Z,97458.09
2022-10-01T18:13:55.308Z,97469.03
2022-10-01T18:16:23.708Z,97471.94
2022-10-01T18:21:43.365Z,97474.00
2022-10-01T18:24:11.174Z,97484.34
2022-10-01T18:26:39.111Z,97477.53
2022-10-01T18:29:08.525Z,97488.06
2022-10-01T18:31:38.346Z,97487.91
2022-10-01T18:34:16.082Z,97484.00
2022-10-01T18:36:54.457Z,97486.84
2022-10-01T18:39:27.688Z,97488.50
2022-10-01T18:41:55.377Z,97490.75
2022-10-01T18:44:25.796Z,97493.44
2022-10-01T18:47:04.884Z,97496.97
2022-10-01T18:49:55.961Z,97482.69
2022-10-01T18:52:33.909Z,97501.75
2022-10-01T18:55:30.311Z,97505.25
2022-10-01T18:58:15.160Z,97510.19
2022-10-01T19:00:51.762Z,97508.13
2022-10-01T19:03:39.949Z,97512.50
2022-10-01T19:06:33.428Z,97511.03
2022-10-01T19:09:23.346Z,97507.09
2022-10-01T19:12:00.801Z,97521.97
2022-10-01T19:14:47.343Z,97531.31
2022-10-01T19:17:28.729Z,97532.53
2022-10-01T19:20:14.357Z,97534.19
2022-10-01T19:22:56.844Z,97543.50
2022-10-01T19:25:31.543Z,97543.09
2022-10-01T19:28:15.382Z,97548.25
2022-10-01T19:30:54.592Z,97558.59
2022-10-01T19:33:24.131Z,97559.41
2022-10-01T19:35:58.356Z,97558.38
2022-10-01T19:38:33.510Z,97564.78
2022-10-01T19:41:04.510Z,97568.94
2022-10-01T19:43:38.742Z,97580.50
2022-10-01T19:46:11.897Z,97577.81
2022-10-01T19:48:47.095Z,97576.16
2022-10-01T19:51:17.702Z,97588.56
2022-10-01T19:53:49.534Z,97593.94
2022-10-01T19:56:24.193Z,97594.78
2022-10-01T19:58:51.809Z,97591.03
2022-10-01T20:01:22.709Z,97599.72
2022-10-01T20:03:58.615Z,97605.31
2022-10-01T20:06:31.372Z,97618.13
2022-10-01T20:09:01.230Z,97621.00
2022-10-01T20:11:31.637Z,97630.94
2022-10-01T20:14:37.171Z,97643.16
2022-10-01T20:17:13.183Z,97646.63
2022-10-01T20:19:51.408Z,97654.69
2022-10-01T20:22:28.402Z,97661.97
2022-10-01T20:25:03.888Z,97658.22
2022-10-01T20:27:49.053Z,97664.63
2022-10-01T20:30:20.077Z,97672.06
2022-10-01T20:32:57.527Z,97668.34
2022-10-01T20:35:35.053Z,97667.31
2022-10-01T20:38:10.946Z,97677.88
2022-10-01T20:40:49.423Z,97680.56
2022-10-01T20:43:21.560Z,97684.91
2022-10-01T20:45:52.464Z,97684.25
2022-10-01T20:48:25.063Z,97689.84
2022-10-01T20:50:58.436Z,97696.06
2022-10-01T20:53:33.888Z,97706.81
2022-10-01T20:56:06.016Z,97702.06
2022-10-01T20:58:44.482Z,97712.81
2022-10-01T21:01:18.548Z,97711.78
2022-10-01T21:03:48.653Z,97716.94
2022-10-01T21:06:21.785Z,97719.22
2022-10-01T21:08:53.491Z,97718.81
2022-10-01T21:11:29.141Z,97716.53
2022-10-01T21:14:04.085Z,97722.31
2022-10-01T21:16:46.326Z,97727.91
2022-10-01T21:19:26.595Z,97738.84
2022-10-01T21:22:05.763Z,97737.22
2022-10-01T21:24:48.505Z,97752.94
2022-10-01T21:27:31.309Z,97753.75
2022-10-01T21:30:08.723Z,97767.59
2022-10-01T21:32:52.073Z,97772.75
2022-10-01T21:35:29.011Z,97772.97
2022-10-01T21:38:05.738Z,97769.06
2022-10-01T21:40:48.573Z,97782.09
2022-10-01T21:43:35.508Z,97786.00
2022-10-01T21:46:11.577Z,97777.09
2022-10-01T21:48:47.498Z,97780.81
2022-10-01T21:51:18.349Z,97789.06
2022-10-01T21:54:03.685Z,97793.84
2022-10-01T21:56:54.987Z,97801.25
2022-10-01T21:59:41.175Z,97813.69
2022-10-01T22:02:20.510Z,97808.06
2022-10-01T22:04:51.643Z,97813.69
2022-10-01T22:07:23.878Z,97813.69
2022-10-01T22:10:04.131Z,97806.00
2022-10-01T22:12:36.130Z,97808.72
2022-10-01T22:15:16.719Z,97819.06
2022-10-01T22:17:46.069Z,97832.25
2022-10-01T22:20:15.223Z,97839.28
2022-10-01T22:22:43.745Z,97844.19
2022-10-01T22:25:14.782Z,97842.16
2022-10-01T22:27:51.954Z,97844.00
2022-10-01T22:30:22.104Z,97847.13
2022-10-01T22:32:56.691Z,97848.38
2022-10-01T22:35:30.541Z,97849.56
2022-10-01T22:38:03.495Z,97856.59
2022-10-01T22:40:39.635Z,97859.72
2022-10-01T22:43:11.381Z,97870.28
2022-10-01T22:45:52.792Z,97869.88
2022-10-01T22:48:35.751Z,97870.88
2022-10-01T22:51:13.452Z,97882.22
2022-10-01T22:53:53.684Z,97873.56
2022-10-01T22:56:29.587Z,97880.34
2022-10-01T22:59:08.634Z,97885.50
2022-10-01T23:01:46.224Z,97885.09
2022-10-01T23:04:32.591Z,97892.91
2022-10-01T23:07:11.014Z,97896.03
2022-10-01T23:09:44.728Z,97900.78
2022-10-01T23:12:21.626Z,97891.28
2022-10-01T23:15:00.275Z,97893.78
2022-10-01T23:17:33.920Z,97890.47
2022-10-01T23:20:12.296Z,97894.16
2022-10-01T23:22:54.036Z,97897.50
2022-10-01T23:25:35.429Z,97900.53
2022-10-01T23:28:19.263Z,97909.81
2022-10-01T23:30:59.485Z,97913.53
2022-10-01T23:33:44.932Z,97917.28
2022-10-01T23:36:24.015Z,97914.59
2022-10-01T23:39:17.473Z,97912.31
2022-10-01T23:41:50.169Z,97921.00
2022-10-01T23:44:29.679Z,97916.03
2022-10-01T23:46:59.972Z,97924.53
2022-10-01T23:49:33.263Z,97934.25
2022-10-01T23:52:06.538Z,97937.13
2022-10-01T23:54:39.407Z,97937.13
2022-10-01T23:57:12.821Z,97941.88
2022-10-01T23:59:46.848Z,97941.88
